Current Weather

Chon Buri/Sattahip

Chon Buri/Sattahip, Thailand (VTBS)

Report from: Thursday, April 25, 2024 2:00 AM +07
Current time: Thursday, April 25, 2024 2:33 AM +07

Nearby weather – Weather history – Daily summaries
Weather forecast

Temperature30.0°C (86.0°F)
Heat index36.3°C (97.3°F)
Dew point25.0°C (77.0°F)
Winds 11 kts (5.7 m/s, 12.7 mph) South (190°)
Visibility6.2 mi. (10 km)
Clouds Few clouds 2,000 ft. (610 m)
Altimeter29.71 in.Hg (1006 mB)
Relative humidity75 %
Density altitude2,386 ft. (727 m)
Remarks No significant changes expected in the next two hours
Flight conditions Visual Meteorological Conditions
Raw dataVTBS 241900Z 19011KT 9999 FEW020 30/25 Q1006 NOSIG
An error has occurred. This application may no longer respond until reloaded. Reload 🗙